Time;durP1;ratioP1;P1;durP2;ratioP2;P2;SDS_P1;SDS_P2;PMS_P1;PMS_P2;Temp;Humidity;BMP_temperature;BMP_pressure;BME280_temperature;BME280_humidity;BME280_pressure;Samples;Min_cycle;Max_cycle;Signal;HPM_P1;HPM_P2
2022/11/06 00:01:14;;;;;;;4.70;2.20;;;;;;;11.66;100.00;100322.47;5046352;28;20055;-64
2022/11/06 00:03:39;;;;;;;4.93;2.10;;;;;;;11.65;100.00;100315.53;5045425;28;20056;-64
2022/11/06 00:08:53;;;;;;;2.80;1.23;;;;;;;11.69;100.00;100298.97;5044621;28;20109;-63
2022/11/06 00:11:19;;;;;;;3.17;2.20;;;;;;;11.67;100.00;100294.91;5047367;28;20116;-63
2022/11/06 00:13:46;;;;;;;6.45;1.50;;;;;;;11.63;100.00;100299.00;5037718;28;20037;-63
2022/11/06 00:16:12;;;;;;;4.57;1.60;;;;;;;11.65;100.00;100289.00;5042724;28;20160;-63
2022/11/06 00:18:38;;;;;;;2.50;1.45;;;;;;;11.64;100.00;100295.31;5042398;28;20090;-63
2022/11/06 00:21:15;;;;;;;4.22;2.25;;;;;;;11.66;100.00;100293.28;5043954;28;20032;-64
2022/11/06 00:23:41;;;;;;;3.65;2.20;;;;;;;11.65;100.00;100279.19;5047662;28;20079;-64
2022/11/06 00:26:10;;;;;;;6.20;1.92;;;;;;;11.66;100.00;100282.66;5055164;28;20024;-64
2022/11/06 00:28:36;;;;;;;2.60;1.50;;;;;;;11.66;100.00;100280.00;5050086;28;20124;-64
2022/11/06 00:31:04;;;;;;;4.70;1.35;;;;;;;11.65;100.00;100275.72;5055097;28;21020;-63
2022/11/06 00:33:31;;;;;;;1.90;1.05;;;;;;;11.66;100.00;100266.72;5042064;28;20068;-64
2022/11/06 00:35:56;;;;;;;3.20;1.27;;;;;;;11.67;100.00;100265.69;5040558;28;20040;-64
2022/11/06 00:38:22;;;;;;;6.72;2.22;;;;;;;11.67;100.00;100263.88;5042316;28;20503;-64
2022/11/06 00:40:48;;;;;;;3.92;1.55;;;;;;;11.68;100.00;100262.03;5049986;28;20050;-63
2022/11/06 00:43:13;;;;;;;6.97;1.88;;;;;;;11.69;100.00;100256.50;5051601;28;20060;-63
2022/11/06 00:45:38;;;;;;;4.93;2.75;;;;;;;11.73;100.00;100260.38;5044035;28;20159;-63
2022/11/06 00:48:04;;;;;;;5.80;1.65;;;;;;;11.70;100.00;100257.34;5056350;28;20331;-64
2022/11/06 00:50:29;;;;;;;1.38;1.27;;;;;;;11.67;100.00;100252.41;5051187;28;20067;-64
2022/11/06 00:52:55;;;;;;;5.88;1.58;;;;;;;11.69;100.00;100245.06;5032205;28;20028;-64
2022/11/06 00:55:20;;;;;;;3.58;1.98;;;;;;;11.70;100.00;100239.56;5052433;28;20029;-65
2022/11/06 00:57:45;;;;;;;1.13;0.93;;;;;;;11.69;100.00;100229.13;5056519;28;20032;-65
2022/11/06 01:00:11;;;;;;;7.55;2.38;;;;;;;11.70;100.00;100233.44;5049707;28;20075;-65
2022/11/06 01:02:37;;;;;;;2.58;1.45;;;;;;;11.73;100.00;100230.34;5056162;28;20363;-65
2022/11/06 01:05:03;;;;;;;3.33;1.55;;;;;;;11.70;100.00;100233.44;5048998;28;20027;-64
2022/11/06 01:07:28;;;;;;;5.25;1.75;;;;;;;11.74;100.00;100231.97;5053793;28;20024;-64
2022/11/06 01:09:53;;;;;;;3.22;2.63;;;;;;;11.71;100.00;100214.63;5057375;28;20089;-64
2022/11/06 01:12:19;;;;;;;2.42;1.70;;;;;;;11.72;100.00;100212.78;5059633;28;20478;-64
2022/11/06 01:14:44;;;;;;;4.13;2.10;;;;;;;11.74;100.00;100216.03;5036040;28;20128;-65
2022/11/06 01:17:10;;;;;;;1.75;1.30;;;;;;;11.76;100.00;100214.00;5047541;28;20025;-65
2022/11/06 01:19:35;;;;;;;2.88;2.15;;;;;;;11.74;100.00;100211.53;5055561;28;20036;-64
2022/11/06 01:22:01;;;;;;;3.35;2.17;;;;;;;11.74;100.00;100221.34;5057745;28;20151;-63
2022/11/06 01:24:27;;;;;;;3.05;1.92;;;;;;;11.75;100.00;100215.03;5046279;28;20021;-63
2022/11/06 01:26:53;;;;;;;5.30;2.10;;;;;;;11.74;100.00;100213.38;5057234;28;20483;-65
2022/11/06 01:29:19;;;;;;;3.85;2.97;;;;;;;11.74;100.00;100202.75;5056737;28;20159;-66
2022/11/06 01:31:48;;;;;;;2.78;2.20;;;;;;;11.74;100.00;100200.09;5062046;28;20115;-67
2022/11/06 01:34:14;;;;;;;3.35;1.85;;;;;;;11.76;100.00;100201.53;5040303;28;20098;-67
2022/11/06 01:36:39;;;;;;;5.25;2.30;;;;;;;11.78;100.00;100190.72;5057009;28;20465;-68
2022/11/06 01:39:07;;;;;;;2.03;1.45;;;;;;;11.78;100.00;100191.53;5057569;28;20075;-68
2022/11/06 01:41:37;;;;;;;2.53;1.55;;;;;;;11.79;100.00;100181.72;5059377;28;20041;-67
2022/11/06 01:44:40;;;;;;;0.60;0.60;;;;;;;11.79;100.00;100173.75;5055549;28;20399;-67
2022/11/06 01:47:28;;;;;;;0.52;0.52;;;;;;;11.82;100.00;100172.53;5060226;28;20113;-66
2022/11/06 01:50:02;;;;;;;0.93;0.73;;;;;;;11.81;100.00;100171.72;5059929;28;20056;-67
2022/11/06 01:52:31;;;;;;;0.73;0.73;;;;;;;11.83;100.00;100171.53;5052041;28;20496;-67
2022/11/06 01:55:05;;;;;;;4.07;0.52;;;;;;;11.82;100.00;100181.28;5054362;28;20122;-67
2022/11/06 01:57:31;;;;;;;1.42;1.20;;;;;;;11.83;100.00;100161.69;5062833;28;20032;-66
2022/11/06 01:59:56;;;;;;;2.47;0.50;;;;;;;11.84;100.00;100163.31;5054099;28;20289;-65
2022/11/06 02:02:22;;;;;;;1.85;1.42;;;;;;;11.84;100.00;100167.81;5048668;28;20025;-67
2022/11/06 02:04:49;;;;;;;1.27;1.17;;;;;;;11.87;100.00;100168.25;5046117;28;20017;-67
2022/11/06 02:07:16;;;;;;;1.83;1.45;;;;;;;11.88;100.00;100155.81;5040193;28;20028;-66
2022/11/06 02:09:42;;;;;;;1.80;1.17;;;;;;;11.84;100.00;100146.56;5058322;28;20025;-66
2022/11/06 02:12:07;;;;;;;2.50;1.48;;;;;;;11.78;100.00;100140.25;5065040;28;20429;-66
2022/11/06 02:14:47;;;;;;;0.77;0.38;;;;;;;11.74;100.00;100125.75;5063805;28;20109;-66
2022/11/06 02:17:50;;;;;;;0.55;0.55;;;;;;;11.77;100.00;100125.31;5060885;28;20597;-66
2022/11/06 02:20:36;;;;;;;2.65;0.52;;;;;;;11.76;100.00;100126.34;5061827;28;20036;-65
2022/11/06 02:23:22;;;;;;;0.50;0.50;;;;;;;11.81;100.00;100125.75;5061171;28;20242;-66
2022/11/06 02:26:25;;;;;;;0.28;0.28;;;;;;;11.85;100.00;100116.31;5062598;28;20066;-66
2022/11/06 02:28:58;;;;;;;0.90;0.22;;;;;;;11.84;100.00;100120.00;5065129;28;20044;-66
2022/11/06 02:31:27;;;;;;;0.55;0.50;;;;;;;11.81;100.00;100118.59;5044002;28;20029;-66
2022/11/06 02:33:57;;;;;;;1.92;0.68;;;;;;;11.79;100.00;100117.97;5060583;28;20481;-66
2022/11/06 02:36:29;;;;;;;0.75;0.20;;;;;;;11.81;100.00;100120.44;5056951;28;20459;-66
2022/11/06 02:39:00;;;;;;;0.75;0.55;;;;;;;11.81;100.00;100110.63;5063966;28;20019;-66
2022/11/06 02:41:31;;;;;;;2.72;0.85;;;;;;;11.79;100.00;100105.50;5060240;28;20032;-67
2022/11/06 02:43:58;;;;;;;1.45;0.30;;;;;;;11.75;100.00;100106.97;5069824;28;20036;-67
2022/11/06 02:46:33;;;;;;;0.13;0.13;;;;;;;11.76;100.00;100113.88;5067779;28;20359;-67
2022/11/06 02:49:06;;;;;;;0.93;0.68;;;;;;;11.77;100.00;100125.31;5060141;28;20040;-66
2022/11/06 02:51:41;;;;;;;0.95;0.55;;;;;;;11.75;100.00;100111.47;5058138;28;20061;-65
2022/11/06 02:54:09;;;;;;;0.30;0.20;;;;;;;11.76;100.00;100110.41;5065179;28;20050;-67
2022/11/06 02:56:43;;;;;;;0.20;0.20;;;;;;;11.74;100.00;100117.78;5064860;28;20046;-66
2022/11/06 02:59:16;;;;;;;0.22;0.10;;;;;;;11.72;100.00;100110.03;5050313;28;20025;-66
2022/11/06 03:01:48;;;;;;;1.10;0.45;;;;;;;11.69;100.00;100106.97;5060913;28;20060;-67
2022/11/06 03:04:23;;;;;;;0.00;0.00;;;;;;;11.60;100.00;100092.28;5062433;28;20021;-66
2022/11/06 03:06:58;;;;;;;0.10;0.00;;;;;;;11.58;100.00;100082.66;5042927;28;20294;-66
2022/11/06 03:09:28;;;;;;;0.47;0.38;;;;;;;11.56;100.00;100087.38;5057716;28;20055;-66
2022/11/06 03:12:01;;;;;;;0.30;0.00;;;;;;;11.55;100.00;100091.06;5041482;28;20557;-66
2022/11/06 03:14:42;;;;;;;0.63;0.00;;;;;;;11.52;100.00;100093.31;5058619;28;20045;-66
2022/11/06 03:17:19;;;;;;;0.03;0.03;;;;;;;11.50;100.00;100096.16;5055733;28;20028;-65
2022/11/06 03:19:52;;;;;;;2.30;0.80;;;;;;;11.49;100.00;100086.56;5060199;28;20946;-66
2022/11/06 03:22:39;;;;;;;1.10;0.00;;;;;;;11.48;100.00;100082.28;5061768;28;20123;-66
2022/11/06 03:25:20;;;;;;;0.40;0.00;;;;;;;11.46;100.00;100068.41;5055113;28;20508;-66
2022/11/06 03:28:06;;;;;;;0.65;0.30;;;;;;;11.44;100.00;100072.28;5060159;28;20072;-67
2022/11/06 03:30:35;;;;;;;0.03;0.03;;;;;;;11.41;100.00;100062.91;5062565;28;20045;-67
2022/11/06 03:33:37;;;;;;;1.27;0.35;;;;;;;11.37;100.00;100053.72;5053135;28;20552;-67
2022/11/06 03:36:23;;;;;;;2.28;0.45;;;;;;;11.37;100.00;100066.97;5048045;28;20062;-67
2022/11/06 03:39:01;;;;;;;0.60;0.20;;;;;;;11.33;100.00;100053.31;5058949;28;20043;-67
2022/11/06 03:41:33;;;;;;;0.43;0.00;;;;;;;11.32;100.00;100045.56;5060518;28;20035;-67
2022/11/06 03:44:02;;;;;;;0.55;0.00;;;;;;;11.27;100.00;100043.50;5055571;28;20028;-66
2022/11/06 03:46:30;;;;;;;3.60;1.00;;;;;;;11.28;100.00;100047.81;5054084;28;20127;-67
2022/11/06 03:49:07;;;;;;;0.65;0.10;;;;;;;11.28;100.00;100033.69;5054281;28;20135;-67
2022/11/06 03:51:48;;;;;;;0.57;0.00;;;;;;;11.27;100.00;100040.84;5059542;28;20021;-67
2022/11/06 03:54:23;;;;;;;2.58;0.25;;;;;;;11.25;100.00;100031.47;5055919;28;20033;-67
2022/11/06 03:57:08;;;;;;;1.75;0.05;;;;;;;11.25;100.00;100034.94;5060928;28;20040;-67
2022/11/06 03:59:40;;;;;;;0.10;0.03;;;;;;;11.23;100.00;100038.81;5057826;28;20115;-66
2022/11/06 04:02:06;;;;;;;0.70;0.03;;;;;;;11.20;100.00;100047.19;5065805;28;20579;-66
2022/11/06 04:04:45;;;;;;;0.73;0.30;;;;;;;11.20;100.00;100040.03;5061406;28;20033;-66
2022/11/06 04:07:14;;;;;;;1.02;0.20;;;;;;;11.20;100.00;100049.84;5056994;28;20040;-66
2022/11/06 04:15:18;;;;;;;2.17;0.20;;;;;;;11.21;100.00;100035.56;5063161;28;20086;-66
2022/11/06 04:17:43;;;;;;;1.63;0.68;;;;;;;11.21;100.00;100030.25;5053740;28;20020;-66
2022/11/06 04:21:20;;;;;;;3.13;0.22;;;;;;;11.22;100.00;100021.28;5060051;28;20608;-66
2022/11/06 04:23:11;;;;;;;0.30;0.13;;;;;;;11.23;100.00;100022.88;5053481;28;20040;-66
2022/11/06 04:28:58;;;;;;;2.25;0.45;;;;;;;11.24;100.00;100027.19;5049319;28;20417;-66
2022/11/06 04:31:32;;;;;;;0.65;0.35;;;;;;;11.25;100.00;100020.84;5036398;28;20036;-66
2022/11/06 04:34:08;;;;;;;0.17;0.15;;;;;;;11.23;100.00;100010.47;5056476;28;20028;-66
2022/11/06 04:37:00;;;;;;;0.82;0.73;;;;;;;11.25;100.00;100013.69;5049846;28;20048;-66
2022/11/06 04:39:48;;;;;;;5.40;1.88;;;;;;;11.23;100.00;100006.97;5065255;28;20103;-66
2022/11/06 04:42:42;;;;;;;0.40;0.10;;;;;;;11.22;100.00;100003.50;5038677;28;20130;-66
2022/11/06 04:45:38;;;;;;;0.30;0.20;;;;;;;11.23;100.00;100026.38;5059846;28;20048;-66
2022/11/06 04:48:06;;;;;;;1.55;0.47;;;;;;;11.20;100.00;100013.50;5033242;28;20040;-66
2022/11/06 04:50:37;;;;;;;2.92;0.32;;;;;;;11.21;100.00;100011.69;5058678;28;20051;-65
2022/11/06 04:53:04;;;;;;;1.20;0.10;;;;;;;11.22;100.00;100000.84;5048499;28;20070;-65
2022/11/06 04:55:30;;;;;;;1.65;0.20;;;;;;;11.21;100.00;99995.75;5063309;28;20063;-65
2022/11/06 04:57:55;;;;;;;1.17;0.10;;;;;;;11.22;100.00;99984.13;5062084;28;20124;-66
2022/11/06 05:00:21;;;;;;;0.93;0.20;;;;;;;11.21;100.00;99987.81;5050232;28;20627;-67
2022/11/06 05:02:46;;;;;;;2.13;0.10;;;;;;;11.20;100.00;100004.72;5057387;28;20541;-67
2022/11/06 05:05:11;;;;;;;2.28;0.17;;;;;;;11.21;100.00;100004.53;5049028;28;20025;-67
2022/11/06 05:07:37;;;;;;;0.20;0.15;;;;;;;11.22;100.00;99998.19;5052675;28;20071;-66
2022/11/06 05:10:03;;;;;;;0.75;0.17;;;;;;;11.23;100.00;99983.09;5064125;28;20441;-65
2022/11/06 05:12:28;;;;;;;0.10;0.08;;;;;;;11.22;100.00;99976.16;5050738;28;20071;-66
2022/11/06 05:14:54;;;;;;;0.30;0.10;;;;;;;11.24;100.00;99976.78;5059743;28;20424;-66
2022/11/06 05:17:19;;;;;;;0.85;0.10;;;;;;;11.25;100.00;99962.47;5056424;28;20525;-66
2022/11/06 05:19:44;;;;;;;1.50;0.40;;;;;;;11.25;100.00;99967.78;5054019;28;20052;-67
2022/11/06 05:24:53;;;;;;;0.05;0.00;;;;;;;11.23;100.00;99938.81;5049796;28;20108;-66
2022/11/06 05:27:19;;;;;;;0.38;0.05;;;;;;;11.25;100.00;99938.59;5058693;28;20040;-66
2022/11/06 05:29:44;;;;;;;0.82;0.10;;;;;;;11.25;100.00;99935.94;5055493;28;20025;-66
2022/11/06 05:32:10;;;;;;;0.55;0.10;;;;;;;11.25;100.00;99962.47;5055430;28;20028;-66
2022/11/06 05:34:35;;;;;;;0.20;0.00;;;;;;;11.27;100.00;99992.28;5060114;28;20039;-65
2022/11/06 05:37:00;;;;;;;0.10;0.00;;;;;;;11.26;100.00;99964.94;5061472;28;20247;-65
2022/11/06 05:39:26;;;;;;;1.17;0.00;;;;;;;11.27;100.00;99950.63;5056757;28;20052;-65
2022/11/06 05:41:51;;;;;;;0.17;0.13;;;;;;;11.25;100.00;99950.00;5057830;28;20032;-66
2022/11/06 05:44:16;;;;;;;0.73;0.00;;;;;;;11.28;100.00;99946.97;5061461;28;20028;-65
2022/11/06 05:46:42;;;;;;;0.00;0.00;;;;;;;11.26;100.00;99916.34;5056701;28;20047;-67
2022/11/06 05:49:08;;;;;;;0.47;0.00;;;;;;;11.27;100.00;99912.66;5062040;28;20037;-67
2022/11/06 05:51:33;;;;;;;0.00;0.00;;;;;;;11.26;100.00;99916.34;5045348;28;20108;-66
2022/11/06 05:53:58;;;;;;;0.00;0.00;;;;;;;11.24;100.00;99913.88;5059774;28;20119;-66
2022/11/06 05:56:24;;;;;;;4.20;0.10;;;;;;;11.24;100.00;99915.72;5050449;28;20100;-66
2022/11/06 05:58:49;;;;;;;0.22;0.00;;;;;;;11.22;100.00;99928.38;5054890;28;20032;-66
2022/11/06 06:01:14;;;;;;;0.00;0.00;;;;;;;11.21;100.00;99938.19;5057175;28;20029;-66
2022/11/06 06:03:40;;;;;;;2.03;0.00;;;;;;;11.22;100.00;99923.88;5056243;28;20176;-66
2022/11/06 06:06:05;;;;;;;1.02;0.10;;;;;;;11.20;100.00;99920.63;5062091;28;20033;-64
2022/11/06 06:08:30;;;;;;;2.17;0.65;;;;;;;11.18;100.00;99913.91;5064127;28;20401;-64
2022/11/06 06:10:56;;;;;;;1.02;0.20;;;;;;;11.14;100.00;99906.34;5061020;28;20070;-65
2022/11/06 06:13:21;;;;;;;0.57;0.10;;;;;;;11.13;100.00;99907.41;5066513;28;20151;-65
2022/11/06 06:15:47;;;;;;;0.20;0.00;;;;;;;11.11;100.00;99898.00;5047346;28;20117;-66
2022/11/06 06:18:12;;;;;;;1.00;0.10;;;;;;;11.08;100.00;99896.59;5064211;28;20028;-65
2022/11/06 06:20:38;;;;;;;5.72;1.02;;;;;;;11.08;100.00;99893.13;5062847;28;20021;-66
2022/11/06 06:23:04;;;;;;;1.88;0.20;;;;;;;11.06;100.00;99890.66;5063556;28;20466;-65
2022/11/06 06:25:29;;;;;;;2.65;0.00;;;;;;;11.07;100.00;99902.91;5054952;28;20028;-66
2022/11/06 06:27:56;;;;;;;0.93;0.17;;;;;;;11.06;100.00;99895.97;5057135;28;20375;-66
2022/11/06 06:30:22;;;;;;;1.70;0.13;;;;;;;11.06;100.00;99890.66;5064747;28;20037;-66
2022/11/06 06:32:49;;;;;;;4.38;0.63;;;;;;;11.03;100.00;99880.47;5058892;28;20386;-64
2022/11/06 06:35:16;;;;;;;1.27;0.52;;;;;;;11.02;100.00;99873.56;5056638;28;20541;-65
2022/11/06 06:37:42;;;;;;;0.20;0.20;;;;;;;10.99;100.00;99873.94;5063005;28;20040;-66
2022/11/06 06:40:09;;;;;;;0.43;0.20;;;;;;;11.00;100.00;99865.00;5057390;28;20036;-66
2022/11/06 06:42:34;;;;;;;1.42;0.63;;;;;;;10.99;100.00;99857.22;5062451;28;20064;-66
2022/11/06 06:44:59;;;;;;;2.17;0.43;;;;;;;10.98;100.00;99864.38;5063989;28;20114;-65
2022/11/06 06:47:25;;;;;;;1.20;0.00;;;;;;;10.98;100.00;99850.31;5057964;28;20050;-65
2022/11/06 06:49:51;;;;;;;0.75;0.00;;;;;;;10.97;100.00;99849.50;5059392;28;20032;-64
2022/11/06 06:52:16;;;;;;;0.13;0.00;;;;;;;10.96;100.00;99842.53;5056960;28;20032;-65
2022/11/06 06:54:41;;;;;;;1.17;0.00;;;;;;;10.96;100.00;99836.44;5061804;28;20033;-65
2022/11/06 06:57:07;;;;;;;2.50;0.08;;;;;;;10.96;100.00;99829.28;5057582;28;20035;-65
2022/11/06 06:59:33;;;;;;;1.80;0.38;;;;;;;10.95;100.00;99830.31;5062352;28;20115;-66
2022/11/06 07:01:58;;;;;;;1.27;0.10;;;;;;;10.96;100.00;99842.53;5053815;28;20183;-66
2022/11/06 07:04:24;;;;;;;2.40;0.35;;;;;;;10.95;100.00;99830.31;5049185;28;20033;-66
2022/11/06 07:06:53;;;;;;;0.32;0.20;;;;;;;10.97;100.00;99828.28;5052892;28;20112;-66
2022/11/06 07:09:18;;;;;;;0.00;0.00;;;;;;;10.96;100.00;99821.31;5040934;28;20063;-65
2022/11/06 07:11:43;;;;;;;0.00;0.00;;;;;;;10.96;100.00;99812.56;5059046;28;20044;-66
2022/11/06 07:14:09;;;;;;;0.80;0.00;;;;;;;10.96;100.00;99821.31;5063727;28;20103;-65
2022/11/06 07:16:35;;;;;;;0.03;0.03;;;;;;;10.97;100.00;99822.97;5060686;28;20041;-66
2022/11/06 07:19:00;;;;;;;0.40;0.00;;;;;;;10.99;100.00;99826.22;5061341;28;20175;-66
2022/11/06 07:21:25;;;;;;;0.10;0.00;;;;;;;11.00;100.00;99821.75;5056136;28;20040;-66
2022/11/06 07:23:51;;;;;;;0.08;0.08;;;;;;;11.00;100.00;99817.25;5061724;28;20028;-66
2022/11/06 07:26:16;;;;;;;0.32;0.00;;;;;;;11.00;100.00;99800.53;5058556;28;20037;-66
2022/11/06 07:28:41;;;;;;;1.75;0.17;;;;;;;11.00;100.00;99803.16;5064964;28;20455;-66
2022/11/06 07:31:07;;;;;;;0.25;0.00;;;;;;;11.00;100.00;99806.63;5054719;28;20519;-66
2022/11/06 07:33:33;;;;;;;1.55;0.10;;;;;;;11.02;100.00;99819.66;5068251;28;20037;-66
2022/11/06 07:36:07;;;;;;;0.00;0.00;;;;;;;11.02;100.00;99828.47;5055402;28;20032;-65
2022/11/06 07:38:34;;;;;;;0.00;0.00;;;;;;;11.02;100.00;99820.50;5058210;28;20029;-63
2022/11/06 07:41:04;;;;;;;0.00;0.00;;;;;;;11.03;100.00;99827.44;5054125;28;20032;-64
2022/11/06 07:43:30;;;;;;;0.55;0.08;;;;;;;11.04;100.00;99838.84;5052889;28;20037;-65
2022/11/06 07:46:03;;;;;;;0.10;0.10;;;;;;;11.06;100.00;99834.97;5056208;28;20520;-63
2022/11/06 07:48:29;;;;;;;0.10;0.00;;;;;;;11.04;100.00;99830.88;5059703;28;20115;-64
2022/11/06 07:50:55;;;;;;;0.55;0.00;;;;;;;11.04;100.00;99829.03;5044638;28;20047;-65
2022/11/06 07:53:21;;;;;;;0.20;0.00;;;;;;;11.02;100.00;99811.72;5055980;28;20064;-63
2022/11/06 07:55:52;;;;;;;0.00;0.00;;;;;;;11.03;100.00;99800.09;5058938;28;20117;-64
2022/11/06 07:58:18;;;;;;;0.38;0.00;;;;;;;11.00;100.00;99801.31;5049739;28;20040;-64
2022/11/06 08:00:52;;;;;;;1.38;0.17;;;;;;;11.01;100.00;99795.00;5054962;28;20025;-65
2022/11/06 08:03:17;;;;;;;0.00;0.00;;;;;;;11.00;100.00;99795.22;5068342;28;20074;-65
2022/11/06 08:05:43;;;;;;;0.00;0.00;;;;;;;11.01;100.00;99796.81;5041083;28;20021;-66
2022/11/06 08:08:09;;;;;;;0.00;0.00;;;;;;;11.01;100.00;99787.03;5060658;28;20028;-66
2022/11/06 08:10:39;;;;;;;0.00;0.00;;;;;;;11.03;100.00;99795.59;5059086;28;20032;-65
2022/11/06 08:13:05;;;;;;;0.47;0.47;;;;;;;11.03;100.00;99792.94;5064929;28;20060;-65
2022/11/06 08:15:30;;;;;;;0.57;0.00;;;;;;;11.05;100.00;99796.19;5066454;28;20449;-65
2022/11/06 08:17:58;;;;;;;0.98;0.00;;;;;;;11.05;100.00;99804.16;5060818;28;20048;-64
2022/11/06 08:20:23;;;;;;;0.20;0.00;;;;;;;11.06;100.00;99805.78;5044088;28;20028;-65
2022/11/06 08:22:48;;;;;;;2.13;0.00;;;;;;;11.07;100.00;99814.53;5057940;28;20033;-64
2022/11/06 08:25:14;;;;;;;0.25;0.10;;;;;;;11.06;100.00;99810.28;5064439;28;20119;-63
2022/11/06 08:27:39;;;;;;;0.00;0.00;;;;;;;11.06;100.00;99803.13;5059703;28;20040;-62
2022/11/06 08:30:05;;;;;;;0.00;0.00;;;;;;;11.07;100.00;99804.75;5064893;28;20024;-64
2022/11/06 08:32:31;;;;;;;0.85;0.00;;;;;;;11.04;100.00;99794.56;5060120;28;20031;-64
2022/11/06 08:34:56;;;;;;;0.10;0.00;;;;;;;11.06;100.00;99784.56;5063733;28;20107;-64
2022/11/06 08:37:21;;;;;;;0.95;0.00;;;;;;;11.05;100.00;99785.59;5057467;28;20028;-63
2022/11/06 08:39:46;;;;;;;0.40;0.00;;;;;;;11.06;100.00;99779.25;5062367;28;20142;-62
2022/11/06 08:42:12;;;;;;;0.20;0.20;;;;;;;11.06;100.00;99781.91;5059184;28;20556;-64
2022/11/06 08:44:38;;;;;;;1.08;0.20;;;;;;;11.05;100.00;99772.31;5058856;28;20115;-64
2022/11/06 08:47:04;;;;;;;0.10;0.00;;;;;;;11.07;100.00;99777.41;5060551;28;20218;-65
2022/11/06 08:49:29;;;;;;;2.13;0.55;;;;;;;11.08;100.00;99779.06;5057093;28;20037;-65
2022/11/06 08:51:54;;;;;;;0.00;0.00;;;;;;;11.08;100.00;99777.22;5053857;28;20412;-64
2022/11/06 08:54:20;;;;;;;2.05;0.00;;;;;;;11.08;100.00;99765.78;5057989;28;20103;-64
2022/11/06 08:56:46;;;;;;;2.92;0.03;;;;;;;11.09;100.00;99765.56;5054448;28;20075;-65
2022/11/06 08:59:11;;;;;;;1.02;0.10;;;;;;;11.08;100.00;99753.34;5062864;28;20024;-64
2022/11/06 09:01:36;;;;;;;1.33;0.00;;;;;;;11.09;100.00;99756.78;5056042;28;20477;-64
2022/11/06 09:04:02;;;;;;;1.10;0.00;;;;;;;11.07;100.00;99754.34;5056867;28;20029;-64
2022/11/06 09:06:28;;;;;;;0.95;0.15;;;;;;;11.08;100.00;99758.63;5054728;28;20119;-65
2022/11/06 09:08:54;;;;;;;1.05;0.10;;;;;;;11.06;100.00;99752.72;5042114;28;20032;-64
2022/11/06 09:11:19;;;;;;;0.82;0.08;;;;;;;11.07;100.00;99754.34;5064194;28;20040;-64
2022/11/06 09:13:45;;;;;;;0.98;0.20;;;;;;;11.08;100.00;99755.97;5063055;28;20039;-65
2022/11/06 09:16:10;;;;;;;0.10;0.00;;;;;;;11.11;100.00;99755.56;5053596;28;20059;-63
2022/11/06 09:18:35;;;;;;;0.55;0.43;;;;;;;11.13;100.00;99750.84;5060250;28;20029;-64
2022/11/06 09:21:00;;;;;;;1.33;0.30;;;;;;;11.12;100.00;99746.56;5060668;28;20683;-64
2022/11/06 09:23:26;;;;;;;2.50;0.57;;;;;;;11.12;100.00;99740.44;5056386;28;20525;-64
2022/11/06 09:25:51;;;;;;;2.40;0.30;;;;;;;11.10;100.00;99738.03;5054469;28;20516;-63
2022/11/06 09:28:17;;;;;;;3.58;0.15;;;;;;;11.14;100.00;99747.16;5059988;28;20048;-63
2022/11/06 09:30:42;;;;;;;2.25;0.30;;;;;;;11.14;100.00;99743.72;5064170;28;20032;-63
2022/11/06 09:33:08;;;;;;;0.32;0.10;;;;;;;11.17;100.00;99737.16;5055105;28;20028;-64
2022/11/06 09:35:34;;;;;;;1.48;0.30;;;;;;;11.19;100.00;99732.47;5059754;28;20036;-63
2022/11/06 09:38:04;;;;;;;1.30;0.20;;;;;;;11.19;100.00;99740.41;5056915;28;20032;-63
2022/11/06 09:40:51;;;;;;;0.65;0.10;;;;;;;11.20;100.00;99747.34;5059048;28;20497;-63
2022/11/06 09:43:34;;;;;;;3.55;0.20;;;;;;;11.22;100.00;99740.78;5045773;28;20505;-64
2022/11/06 09:46:08;;;;;;;2.13;0.13;;;;;;;11.22;100.00;99750.59;5053281;28;20025;-64
2022/11/06 09:48:42;;;;;;;0.57;0.32;;;;;;;11.19;100.00;99746.53;5054987;28;20741;-64
2022/11/06 09:51:40;;;;;;;0.60;0.10;;;;;;;11.19;100.00;99746.53;5057060;28;20086;-63
2022/11/06 09:54:35;;;;;;;2.75;0.95;;;;;;;11.19;100.00;99735.13;5062122;28;20498;-63
2022/11/06 09:57:09;;;;;;;0.73;0.10;;;;;;;11.21;100.00;99727.75;5045069;28;20967;-62
2022/11/06 09:59:37;;;;;;;0.93;0.00;;;;;;;11.20;100.00;99720.81;5057461;28;20024;-63
2022/11/06 10:02:33;;;;;;;1.80;0.50;;;;;;;11.21;100.00;99711.84;5052090;28;20489;-64
2022/11/06 10:05:21;;;;;;;4.70;0.60;;;;;;;11.21;100.00;99706.53;5041060;28;20093;-64
2022/11/06 10:07:51;;;;;;;2.83;0.22;;;;;;;11.22;100.00;99702.84;5047739;28;20053;-64
2022/11/06 10:10:21;;;;;;;1.38;0.05;;;;;;;11.21;100.00;99691.41;5038105;28;20040;-63
2022/11/06 10:13:13;;;;;;;0.68;0.10;;;;;;;11.27;100.00;99689.75;5051380;28;20028;-63
2022/11/06 10:15:57;;;;;;;1.65;0.75;;;;;;;11.26;100.00;99693.44;5048304;28;20382;-64
2022/11/06 10:18:29;;;;;;;0.52;0.22;;;;;;;11.28;100.00;99694.00;5054308;28;20024;-64
2022/11/06 10:21:11;;;;;;;0.50;0.20;;;;;;;11.29;100.00;99693.00;5055710;28;20035;-63
2022/11/06 10:23:44;;;;;;;0.95;0.43;;;;;;;11.26;100.00;99688.94;5052289;28;20107;-64
2022/11/06 10:26:14;;;;;;;1.45;0.52;;;;;;;11.30;100.00;99695.41;5056020;28;20032;-64
2022/11/06 10:28:40;;;;;;;1.33;0.55;;;;;;;11.30;100.00;99691.97;5050315;28;20048;-63
2022/11/06 10:31:28;;;;;;;3.75;0.50;;;;;;;11.32;100.00;99688.06;5056644;28;20025;-63
2022/11/06 10:33:59;;;;;;;1.65;0.00;;;;;;;11.31;100.00;99681.16;5049735;28;20142;-64
2022/11/06 10:36:47;;;;;;;1.55;0.40;;;;;;;11.35;100.00;99682.31;5059823;28;20025;-64
2022/11/06 10:39:22;;;;;;;0.10;0.00;;;;;;;11.38;100.00;99673.13;5056615;28;20551;-64
2022/11/06 10:41:57;;;;;;;2.20;0.55;;;;;;;11.41;100.00;99677.19;5058623;28;20514;-64
2022/11/06 10:44:29;;;;;;;0.60;0.40;;;;;;;11.46;100.00;99667.56;5060135;28;20111;-64
2022/11/06 10:47:03;;;;;;;0.38;0.10;;;;;;;11.54;100.00;99677.09;5043546;28;20425;-64
2022/11/06 10:49:28;;;;;;;1.45;0.25;;;;;;;11.56;100.00;99673.19;5057423;28;20562;-63
2022/11/06 10:52:05;;;;;;;0.70;0.40;;;;;;;11.64;100.00;99689.88;5060956;28;20040;-64
2022/11/06 10:54:52;;;;;;;1.42;0.00;;;;;;;11.69;100.00;99693.50;5058429;28;20402;-64
2022/11/06 10:57:29;;;;;;;3.35;1.48;;;;;;;11.77;100.00;99684.44;5054747;28;20385;-62
2022/11/06 10:59:54;;;;;;;0.85;0.10;;;;;;;11.74;100.00;99682.22;5061804;28;20044;-64
2022/11/06 11:02:30;;;;;;;1.33;0.30;;;;;;;11.77;100.00;99676.47;5056153;28;20077;-64
2022/11/06 11:04:55;;;;;;;1.55;0.00;;;;;;;11.73;100.00;99668.13;5059508;28;20029;-65
2022/11/06 11:07:21;;;;;;;2.92;0.32;;;;;;;11.76;100.00;99661.56;5045883;28;20549;-63
2022/11/06 11:09:49;;;;;;;0.15;0.05;;;;;;;11.71;100.00;99653.44;5054028;28;20090;-65
2022/11/06 11:12:25;;;;;;;3.13;0.22;;;;;;;11.74;100.00;99655.66;5051455;28;20056;-65
2022/11/06 11:15:13;;;;;;;3.00;0.50;;;;;;;11.80;100.00;99652.16;5058311;28;20025;-65
2022/11/06 11:17:40;;;;;;;2.38;0.60;;;;;;;11.81;100.00;99643.13;5058205;28;20056;-64
2022/11/06 11:20:36;;;;;;;2.70;0.73;;;;;;;11.79;100.00;99648.66;5056416;28;20035;-64
2022/11/06 11:23:23;;;;;;;0.32;0.30;;;;;;;11.76;100.00;99640.34;5034518;28;20090;-64
2022/11/06 11:25:51;;;;;;;3.25;0.52;;;;;;;11.74;100.00;99637.06;5058644;28;20089;-64
2022/11/06 11:28:29;;;;;;;1.77;0.22;;;;;;;11.73;100.00;99638.13;5057042;28;20150;-64
2022/11/06 11:31:15;;;;;;;1.60;0.20;;;;;;;11.73;100.00;99633.63;5057447;28;20509;-64
2022/11/06 11:33:51;;;;;;;2.63;0.50;;;;;;;11.69;100.00;99626.28;5049408;28;20056;-65
2022/11/06 11:36:17;;;;;;;5.85;0.77;;;;;;;11.69;100.00;99618.34;5057552;28;20028;-65
2022/11/06 11:38:43;;;;;;;1.98;1.10;;;;;;;11.68;100.00;99620.19;5053899;28;20042;-65
2022/11/06 11:41:20;;;;;;;7.75;0.82;;;;;;;11.71;100.00;99613.63;5058820;28;20025;-65
2022/11/06 11:44:09;;;;;;;1.65;0.35;;;;;;;11.72;100.00;99623.19;5052476;28;20024;-65
2022/11/06 11:46:45;;;;;;;2.40;0.17;;;;;;;11.68;100.00;99614.88;5036773;28;20032;-65
2022/11/06 11:49:26;;;;;;;2.20;0.28;;;;;;;11.70;100.00;99598.72;5056328;28;20482;-66
2022/11/06 11:51:52;;;;;;;1.10;0.13;;;;;;;11.75;100.00;99582.94;5052273;28;20048;-65